createdAt,value
2019-02-18T00:02:33.591Z,96.40
2019-02-18T00:05:38.036Z,96.80
2019-02-18T00:08:42.475Z,96.30
2019-02-18T00:11:47.217Z,96.40
2019-02-18T00:14:51.659Z,96.40
2019-02-18T00:17:56.095Z,96.60
2019-02-18T00:21:00.527Z,96.40
2019-02-18T00:24:05.222Z,96.20
2019-02-18T00:27:10.053Z,96.70
2019-02-18T00:30:14.987Z,96.50
2019-02-18T00:33:19.432Z,96.70
2019-02-18T00:36:23.870Z,96.60
2019-02-18T00:39:28.674Z,96.60
2019-02-18T00:42:33.119Z,97.20
2019-02-18T00:45:37.940Z,97.20
2019-02-18T00:48:42.763Z,96.80
2019-02-18T00:51:47.491Z,97.00
2019-02-18T00:54:52.229Z,97.10
2019-02-18T00:57:56.675Z,96.80
2019-02-18T01:01:01.493Z,96.80
2019-02-18T01:04:06.532Z,97.10
2019-02-18T01:07:10.962Z,97.00
2019-02-18T01:10:16.198Z,97.50
2019-02-18T01:13:21.324Z,97.20
2019-02-18T01:16:25.757Z,97.30
2019-02-18T01:19:30.791Z,97.20
2019-02-18T01:22:35.226Z,97.30
2019-02-18T01:25:39.658Z,97.20
2019-02-18T01:28:44.094Z,97.30
2019-02-18T01:31:48.525Z,97.10
2019-02-18T01:34:52.958Z,97.20
2019-02-18T01:37:57.406Z,97.10
2019-02-18T01:41:02.160Z,97.20
2019-02-18T01:44:06.599Z,97.50
2019-02-18T01:47:11.316Z,97.30
2019-02-18T01:50:16.499Z,97.20
2019-02-18T01:53:21.283Z,97.20
2019-02-18T01:56:26.016Z,97.60
2019-02-18T01:59:30.461Z,97.50
2019-02-18T02:02:35.186Z,97.30
2019-02-18T02:05:39.902Z,97.30
2019-02-18T02:08:44.352Z,97.60
2019-02-18T02:11:48.780Z,97.80
2019-02-18T02:14:53.485Z,97.90
2019-02-18T02:17:57.920Z,98.30
2019-02-18T02:21:02.359Z,98.10
2019-02-18T02:24:06.798Z,97.70
2019-02-18T02:27:11.478Z,98.00
2019-02-18T02:30:16.211Z,97.80
2019-02-18T02:33:20.655Z,98.10
2019-02-18T02:36:25.089Z,98.00
2019-02-18T02:39:29.794Z,97.90
2019-02-18T02:42:34.215Z,98.20
2019-02-18T02:45:38.661Z,98.20
2019-02-18T02:48:43.094Z,98.10
2019-02-18T02:51:47.791Z,97.80
2019-02-18T02:54:52.524Z,98.10
2019-02-18T02:57:56.951Z,97.80
2019-02-18T03:01:01.676Z,97.80
2019-02-18T03:04:06.112Z,97.90
2019-02-18T03:07:10.544Z,98.20
2019-02-18T03:10:15.356Z,98.10
2019-02-18T03:13:19.784Z,97.80
2019-02-18T03:16:24.615Z,97.80
2019-02-18T03:19:29.049Z,98.20
2019-02-18T03:22:33.486Z,98.50
2019-02-18T03:25:38.303Z,98.10
2019-02-18T03:28:59.347Z,98.10
2019-02-18T03:32:04.040Z,98.60
2019-02-18T03:35:08.482Z,98.30
2019-02-18T03:38:12.898Z,98.50
2019-02-18T03:41:17.344Z,98.00
2019-02-18T03:44:21.762Z,98.20
2019-02-18T03:47:26.204Z,98.40
2019-02-18T03:50:30.888Z,98.00
2019-02-18T03:53:35.620Z,98.20
2019-02-18T03:56:40.342Z,98.60
2019-02-18T03:59:44.875Z,98.80
2019-02-18T04:02:49.607Z,98.20
2019-02-18T04:05:54.052Z,98.30
2019-02-18T04:08:58.468Z,98.50
2019-02-18T04:12:02.913Z,98.20
2019-02-18T04:15:11.109Z,98.40
2019-02-18T04:18:15.543Z,98.70
2019-02-18T04:21:20.003Z,98.40
2019-02-18T04:24:24.425Z,99.00
2019-02-18T04:27:28.868Z,99.10
2019-02-18T04:30:33.304Z,99.10
2019-02-18T04:33:37.735Z,98.90
2019-02-18T04:36:42.465Z,98.90
2019-02-18T04:39:46.895Z,98.00
2019-02-18T04:42:51.332Z,98.20
2019-02-18T04:45:56.144Z,97.90
2019-02-18T04:49:00.570Z,97.80
2019-02-18T04:52:05.009Z,97.80
2019-02-18T04:55:11.574Z,98.20
2019-02-18T04:58:16.015Z,98.20
2019-02-18T05:01:20.455Z,98.00
2019-02-18T05:04:24.882Z,98.20
2019-02-18T05:07:29.317Z,98.40
2019-02-18T05:10:33.743Z,98.40
2019-02-18T05:13:38.189Z,98.20
2019-02-18T05:16:42.933Z,98.60
2019-02-18T05:19:47.370Z,98.40
2019-02-18T05:22:52.084Z,98.40
2019-02-18T05:25:56.517Z,98.50
2019-02-18T05:29:00.956Z,98.40
2019-02-18T05:32:05.396Z,97.80
2019-02-18T05:35:09.901Z,98.10
2019-02-18T05:38:14.613Z,98.30
2019-02-18T05:41:19.051Z,98.30
2019-02-18T05:44:23.487Z,98.40
2019-02-18T05:47:27.932Z,98.60
2019-02-18T05:50:32.356Z,98.90
2019-02-18T05:53:36.798Z,98.90
2019-02-18T05:56:41.283Z,98.60
2019-02-18T05:59:46.107Z,99.00
2019-02-18T06:02:50.542Z,98.90
2019-02-18T06:05:54.991Z,98.80
2019-02-18T06:08:59.467Z,99.00
2019-02-18T06:12:03.886Z,98.90
2019-02-18T06:15:10.254Z,98.90
2019-02-18T06:18:14.699Z,98.70
2019-02-18T06:21:19.411Z,98.90
2019-02-18T06:24:23.847Z,98.90
2019-02-18T06:27:28.283Z,99.00
2019-02-18T06:30:32.722Z,99.10
2019-02-18T06:33:37.163Z,99.10
2019-02-18T06:36:41.603Z,99.10
2019-02-18T06:39:46.039Z,99.20
2019-02-18T06:42:50.480Z,98.90
2019-02-18T06:45:56.538Z,98.50
2019-02-18T06:49:02.623Z,97.80
2019-02-18T06:52:07.051Z,96.70
2019-02-18T06:55:11.489Z,95.40
2019-02-18T06:58:21.101Z,94.70
2019-02-18T07:01:29.656Z,94.30
2019-02-18T07:04:41.748Z,94.80
2019-02-18T07:07:50.554Z,95.40
2019-02-18T07:10:56.625Z,96.10
2019-02-18T07:14:01.364Z,96.30
2019-02-18T07:17:05.768Z,96.60
2019-02-18T07:20:10.278Z,97.20
2019-02-18T07:23:15.087Z,97.80
2019-02-18T07:26:19.533Z,97.90
2019-02-18T07:29:23.962Z,98.00
2019-02-18T07:32:28.706Z,98.00
2019-02-18T07:35:33.437Z,98.10
2019-02-18T07:38:38.157Z,97.90
2019-02-18T07:41:42.889Z,97.60
2019-02-18T07:44:47.619Z,97.40
2019-02-18T07:47:52.354Z,97.30
2019-02-18T07:50:57.183Z,97.30
2019-02-18T07:54:01.645Z,97.90
2019-02-18T07:57:06.065Z,97.60
2019-02-18T08:00:14.212Z,97.30
2019-02-18T08:03:18.647Z,97.30
2019-02-18T08:06:23.400Z,97.40
2019-02-18T08:09:27.850Z,97.70
2019-02-18T08:12:32.267Z,97.50
2019-02-18T08:15:36.711Z,97.40
2019-02-18T08:18:41.150Z,97.20
2019-02-18T08:21:45.577Z,97.00
2019-02-18T08:24:50.352Z,96.30
2019-02-18T08:27:55.083Z,96.80
2019-02-18T08:30:59.817Z,96.50
2019-02-18T08:34:04.254Z,96.20
2019-02-18T08:37:08.691Z,96.50
2019-02-18T08:40:21.945Z,96.00
2019-02-18T08:43:19.281Z,96.10
2019-02-18T08:46:23.977Z,95.60
2019-02-18T08:49:28.426Z,95.50
2019-02-18T08:52:32.854Z,95.40
2019-02-18T08:55:37.302Z,94.70
2019-02-18T08:58:41.722Z,94.70
2019-02-18T09:01:46.181Z,94.90
2019-02-18T09:04:50.615Z,94.50
2019-02-18T09:07:55.042Z,94.10
2019-02-18T09:10:59.481Z,94.00
2019-02-18T09:14:04.194Z,93.50
2019-02-18T09:17:08.634Z,93.20
2019-02-18T09:20:13.138Z,93.20
2019-02-18T09:23:28.160Z,93.00
2019-02-18T09:26:32.611Z,93.10
2019-02-18T09:29:37.036Z,92.50
2019-02-18T09:32:41.805Z,92.20
2019-02-18T09:35:46.252Z,92.20
2019-02-18T09:38:50.953Z,92.10
2019-02-18T09:41:55.686Z,92.10
2019-02-18T09:45:00.440Z,92.00
2019-02-18T09:48:04.844Z,92.00
2019-02-18T09:51:09.280Z,91.40
2019-02-18T09:54:13.718Z,90.50
2019-02-18T09:57:18.164Z,82.90
2019-02-18T10:00:22.609Z,76.50
2019-02-18T10:03:32.095Z,68.80
2019-02-18T10:06:33.213Z,59.50
2019-02-18T10:09:37.649Z,55.40
2019-02-18T10:12:42.393Z,51.50
2019-02-18T10:15:46.822Z,52.80
2019-02-18T10:18:51.534Z,49.00
2019-02-18T10:21:56.265Z,49.50
2019-02-18T10:25:00.775Z,53.10
2019-02-18T10:28:05.224Z,52.50
2019-02-18T10:31:09.684Z,53.70
2019-02-18T10:34:14.124Z,53.80
2019-02-18T10:37:18.893Z,53.50
2019-02-18T10:40:23.331Z,54.30
2019-02-18T10:43:32.528Z,56.40
2019-02-18T10:46:33.953Z,55.60
2019-02-18T10:49:38.622Z,54.10
2019-02-18T10:52:43.067Z,53.20
2019-02-18T10:55:47.514Z,55.40
2019-02-18T10:58:51.954Z,55.50
2019-02-18T11:01:56.409Z,52.00
2019-02-18T11:05:00.840Z,51.80
2019-02-18T11:08:05.587Z,51.70
2019-02-18T11:11:16.935Z,50.70
2019-02-18T11:14:16.794Z,53.00
2019-02-18T11:17:21.311Z,51.30
2019-02-18T11:20:25.748Z,47.40
2019-02-18T11:23:30.470Z,47.20
2019-02-18T11:26:34.910Z,45.80
2019-02-18T11:29:39.346Z,45.90
2019-02-18T11:32:43.792Z,45.00
2019-02-18T11:35:48.229Z,42.70
2019-02-18T11:38:53.299Z,44.20
2019-02-18T11:41:58.033Z,41.70
2019-02-18T11:45:02.478Z,45.60
2019-02-18T11:48:06.916Z,42.70
2019-02-18T11:51:11.609Z,41.10
2019-02-18T11:54:16.054Z,41.10
2019-02-18T11:57:20.762Z,41.20
2019-02-18T12:00:25.499Z,42.60
2019-02-18T12:03:29.940Z,43.70
2019-02-18T12:06:34.378Z,44.20
2019-02-18T12:09:40.820Z,43.50
2019-02-18T12:12:45.050Z,43.30
2019-02-18T12:15:49.487Z,42.90
2019-02-18T12:18:53.931Z,43.40
2019-02-18T12:21:58.614Z,43.40
2019-02-18T12:25:03.063Z,40.00
2019-02-18T12:28:07.505Z,41.70
2019-02-18T12:31:11.940Z,41.50
2019-02-18T12:34:16.391Z,41.00
2019-02-18T12:37:21.138Z,39.80
2019-02-18T12:40:25.575Z,41.50
2019-02-18T12:43:30.295Z,40.30
2019-02-18T12:46:35.432Z,40.20
2019-02-18T12:49:42.200Z,39.60
2019-02-18T12:52:46.647Z,38.70
2019-02-18T12:55:51.366Z,38.10
2019-02-18T12:58:55.809Z,37.60
2019-02-18T13:02:00.517Z,37.10
2019-02-18T13:05:06.981Z,37.60
2019-02-18T13:08:11.425Z,38.40
2019-02-18T13:11:15.897Z,37.10
2019-02-18T13:14:20.396Z,37.30
2019-02-18T13:17:25.096Z,37.30
2019-02-18T13:20:29.540Z,37.10
2019-02-18T13:23:33.988Z,37.00
2019-02-18T13:26:38.425Z,35.60
2019-02-18T13:29:43.203Z,33.10
2019-02-18T13:32:47.639Z,32.10
2019-02-18T13:35:52.085Z,30.80
2019-02-18T13:38:56.533Z,30.90
2019-02-18T13:42:07.278Z,29.00
2019-02-18T13:45:08.986Z,28.60
2019-02-18T13:48:13.433Z,28.10
2019-02-18T13:51:24.049Z,27.60
2019-02-18T13:54:24.042Z,27.20
2019-02-18T13:57:28.743Z,28.90
2019-02-18T14:00:33.886Z,27.00
2019-02-18T14:03:38.334Z,27.50
2019-02-18T14:06:42.776Z,28.20
2019-02-18T14:09:47.494Z,28.70
2019-02-18T14:12:52.002Z,28.90
2019-02-18T14:15:56.445Z,29.90
2019-02-18T14:19:00.894Z,28.70
2019-02-18T14:22:06.643Z,28.90
2019-02-18T14:25:11.605Z,30.00
2019-02-18T14:28:16.361Z,30.50
2019-02-18T14:31:20.803Z,30.80
2019-02-18T14:34:25.517Z,31.50
2019-02-18T14:37:29.949Z,30.00
2019-02-18T14:40:34.569Z,30.00
2019-02-18T14:43:39.035Z,29.50
2019-02-18T14:46:43.472Z,28.60
2019-02-18T14:49:47.922Z,30.20
2019-02-18T14:52:52.765Z,30.50
2019-02-18T14:55:57.217Z,31.70
2019-02-18T14:59:01.734Z,34.70
2019-02-18T15:02:06.650Z,34.10
2019-02-18T15:05:11.091Z,36.70
2019-02-18T15:08:15.809Z,38.20
2019-02-18T15:11:20.542Z,38.90
2019-02-18T15:14:24.985Z,40.10
2019-02-18T15:17:30.003Z,39.90
2019-02-18T15:20:34.452Z,40.40
2019-02-18T15:23:38.884Z,41.00
2019-02-18T15:26:43.514Z,42.20
2019-02-18T15:29:47.958Z,42.30
2019-02-18T15:32:52.431Z,43.40
2019-02-18T15:35:56.875Z,44.20
2019-02-18T15:39:01.309Z,45.90
2019-02-18T15:42:06.103Z,45.30
2019-02-18T15:45:11.085Z,44.70
2019-02-18T15:48:15.572Z,44.90
2019-02-18T15:51:20.029Z,47.50
2019-02-18T15:54:24.728Z,47.30
2019-02-18T15:57:29.203Z,48.40
2019-02-18T16:00:33.644Z,47.00
2019-02-18T16:03:38.080Z,47.10
2019-02-18T16:06:42.528Z,52.50
2019-02-18T16:09:46.988Z,56.10
2019-02-18T16:12:51.675Z,60.40
2019-02-18T16:15:56.244Z,63.00
2019-02-18T16:19:00.677Z,63.80
2019-02-18T16:22:05.117Z,66.20
2019-02-18T16:25:17.010Z,67.30
2019-02-18T16:28:21.512Z,69.40
2019-02-18T16:31:25.958Z,68.70
2019-02-18T16:34:30.394Z,71.20
2019-02-18T16:37:34.838Z,72.50
2019-02-18T16:40:39.281Z,73.60
2019-02-18T16:43:44.042Z,75.20
2019-02-18T16:46:48.445Z,75.70
2019-02-18T16:49:52.902Z,76.80
2019-02-18T16:52:57.331Z,77.40
2019-02-18T16:56:01.768Z,77.10
2019-02-18T16:59:06.206Z,77.90
2019-02-18T17:02:10.656Z,79.20
2019-02-18T17:05:15.092Z,79.20
2019-02-18T17:08:19.535Z,79.80
2019-02-18T17:11:23.983Z,80.30
2019-02-18T17:14:28.423Z,80.90
2019-02-18T17:17:32.879Z,81.30
2019-02-18T17:20:37.321Z,83.10
2019-02-18T17:23:41.772Z,83.20
2019-02-18T17:26:46.225Z,83.20
2019-02-18T17:29:50.658Z,83.80
2019-02-18T17:32:55.482Z,84.40
2019-02-18T17:35:59.920Z,85.30
2019-02-18T17:39:05.262Z,85.50
2019-02-18T17:42:10.054Z,85.70
2019-02-18T17:45:17.103Z,85.50
2019-02-18T17:48:21.538Z,85.90
2019-02-18T17:51:25.982Z,87.10
2019-02-18T17:54:30.758Z,87.50
2019-02-18T17:57:35.194Z,87.20
2019-02-18T18:00:44.013Z,88.10
2019-02-18T18:03:48.445Z,88.50
2019-02-18T18:06:53.186Z,88.30
2019-02-18T18:09:57.666Z,89.20
2019-02-18T18:13:02.111Z,89.70
2019-02-18T18:16:06.535Z,90.10
2019-02-18T18:19:11.265Z,90.50
2019-02-18T18:22:15.704Z,90.60
2019-02-18T18:25:20.130Z,90.40
2019-02-18T18:28:24.569Z,90.70
2019-02-18T18:31:29.002Z,90.90
2019-02-18T18:34:33.445Z,91.10
2019-02-18T18:37:37.882Z,91.20
2019-02-18T18:40:42.312Z,91.30
2019-02-18T18:43:46.745Z,91.20
2019-02-18T18:46:51.483Z,91.20
2019-02-18T18:49:56.625Z,91.20
2019-02-18T18:53:01.072Z,91.30
2019-02-18T18:56:05.550Z,91.30
2019-02-18T18:59:09.987Z,91.60
2019-02-18T19:02:14.414Z,91.80
2019-02-18T19:05:18.848Z,91.80
2019-02-18T19:08:23.297Z,91.60
2019-02-18T19:11:27.730Z,91.40
2019-02-18T19:14:32.293Z,91.50
2019-02-18T19:17:36.731Z,91.70
2019-02-18T19:20:41.160Z,91.60
2019-02-18T19:23:45.597Z,91.70
2019-02-18T19:26:50.029Z,91.60
2019-02-18T19:29:55.156Z,91.70
2019-02-18T19:32:59.641Z,92.00
2019-02-18T19:36:04.413Z,92.30
2019-02-18T19:39:09.234Z,92.50
2019-02-18T19:42:13.672Z,92.60
2019-02-18T19:45:23.499Z,92.50
2019-02-18T19:48:27.943Z,92.80
2019-02-18T19:51:32.376Z,92.80
2019-02-18T19:54:36.809Z,92.80
2019-02-18T19:57:41.520Z,92.70
2019-02-18T20:00:45.970Z,92.80
2019-02-18T20:03:50.393Z,92.80
2019-02-18T20:06:54.827Z,92.60
2019-02-18T20:09:59.535Z,92.50
2019-02-18T20:13:04.280Z,92.70
2019-02-18T20:16:08.690Z,92.70
2019-02-18T20:19:13.512Z,92.70
2019-02-18T20:22:17.938Z,93.10
2019-02-18T20:25:22.658Z,93.00
2019-02-18T20:28:27.090Z,93.10
2019-02-18T20:31:31.813Z,93.30
2019-02-18T20:34:36.252Z,93.50
2019-02-18T20:37:40.694Z,93.60
2019-02-18T20:40:45.389Z,93.70
2019-02-18T20:43:50.123Z,93.70
2019-02-18T20:46:54.852Z,93.70
2019-02-18T20:49:59.293Z,93.90
2019-02-18T20:53:03.723Z,93.80
2019-02-18T20:56:08.436Z,93.70
2019-02-18T20:59:12.877Z,93.60
2019-02-18T21:02:18.581Z,93.50
2019-02-18T21:05:23.068Z,93.60
2019-02-18T21:08:27.930Z,93.80
2019-02-18T21:11:32.376Z,93.90
2019-02-18T21:14:36.958Z,94.00
2019-02-18T21:17:41.564Z,94.20
2019-02-18T21:20:46.003Z,94.60
2019-02-18T21:23:50.670Z,94.40
2019-02-18T21:26:55.117Z,94.20
2019-02-18T21:29:59.858Z,94.30
2019-02-18T21:33:04.288Z,94.00
2019-02-18T21:36:09.040Z,94.00
2019-02-18T21:39:13.471Z,94.00
2019-02-18T21:42:17.978Z,94.00
2019-02-18T21:45:22.689Z,94.00
2019-02-18T21:48:27.119Z,94.40
2019-02-18T21:51:31.849Z,94.40
2019-02-18T21:54:36.580Z,94.30
2019-02-18T21:57:41.085Z,94.20
2019-02-18T22:00:45.522Z,94.40
2019-02-18T22:03:49.945Z,94.40
2019-02-18T22:06:54.781Z,94.70
2019-02-18T22:09:59.514Z,94.60
2019-02-18T22:13:04.219Z,94.70
2019-02-18T22:16:08.665Z,95.10
2019-02-18T22:19:13.096Z,94.80
2019-02-18T22:22:17.534Z,94.60
2019-02-18T22:25:21.958Z,94.60
2019-02-18T22:28:26.386Z,94.60
2019-02-18T22:31:30.827Z,95.00
2019-02-18T22:34:35.259Z,95.30
2019-02-18T22:37:40.868Z,94.90
2019-02-18T22:40:45.352Z,94.90
2019-02-18T22:43:50.117Z,94.90
2019-02-18T22:46:54.603Z,94.90
2019-02-18T22:49:59.032Z,95.20
2019-02-18T22:53:03.505Z,94.90
2019-02-18T22:56:07.924Z,95.20
2019-02-18T22:59:12.356Z,95.40
2019-02-18T23:02:16.790Z,95.50
2019-02-18T23:05:21.219Z,95.40
2019-02-18T23:08:25.722Z,95.30
2019-02-18T23:11:30.159Z,95.80
2019-02-18T23:14:34.783Z,95.20
2019-02-18T23:17:39.493Z,95.50
2019-02-18T23:20:43.919Z,95.60
2019-02-18T23:23:48.354Z,95.50
2019-02-18T23:26:53.074Z,95.80
2019-02-18T23:29:57.798Z,96.20
2019-02-18T23:33:02.532Z,96.00
2019-02-18T23:36:06.970Z,95.90
2019-02-18T23:39:11.407Z,96.30
2019-02-18T23:42:15.845Z,95.50
2019-02-18T23:45:20.277Z,95.70
2019-02-18T23:48:24.714Z,95.50
2019-02-18T23:51:29.148Z,95.40
2019-02-18T23:54:33.579Z,95.40
2019-02-18T23:57:38.024Z,96.00
